MSR295 HECA-OLBA
Flight info
| Callsign | MSR295 |
|---|---|
| Flight time | 1h 23m |
| Altitude | 24000 |
| Route | HECA/05C CVO A16 DEGDI/N0462F330 DCT SENTO/N0464F340 Q777 IMPIP N307 LAKTO N71 STEPA L78 DESPO R19 KUKLA |
| Aircraft | B739/M-SDE2E3FGHIRWXY/LB1 |
Departure
| Time | 2026-04-30 17:46 |
|---|---|
| Airport | Cairo International Airport (HECA) |
Arrival
| Time | 2026-04-30 19:09 |
|---|---|
| Airport | Beirut Rafic Hariri International Airport (OLBA) |
| Time | Latitude | Longitude | Altitude | Speed | Heading |
|---|---|---|---|---|---|
| 2026-04-30 17:39 | 30.10732 | 31.39449 | 386 ft | 8 kts | 165° |
| 2026-04-30 17:41 | 30.10425 | 31.39784 | 387 ft | 8 kts | 165° |
| 2026-04-30 17:42 | 30.10332 | 31.39754 | 387 ft | 5 kts | 225° |
| 2026-04-30 17:42 | 30.10107 | 31.39609 | 387 ft | 15 kts | 139° |
| 2026-04-30 17:43 | 30.10004 | 31.39783 | 387 ft | 12 kts | 92° |
| 2026-04-30 17:44 | 30.10160 | 31.40070 | 387 ft | 53 kts | 48° |
| 2026-04-30 17:44 | 30.12091 | 31.42664 | 883 ft | 184 kts | 46° |
| 2026-04-30 17:46 | 30.16978 | 31.42001 | 3342 ft | 229 kts | 304° |
| 2026-04-30 17:47 | 30.20777 | 31.35228 | 5063 ft | 280 kts | 307° |
| 2026-04-30 17:48 | 30.27781 | 31.33347 | 7312 ft | 269 kts | 352° |
| 2026-04-30 17:48 | 30.33353 | 31.32505 | 9572 ft | 273 kts | 348° |
| 2026-04-30 17:49 | 30.41529 | 31.31156 | 11028 ft | 339 kts | 349° |
| 2026-04-30 17:50 | 30.51315 | 31.29577 | 11786 ft | 359 kts | 349° |
| 2026-04-30 17:51 | 30.58770 | 31.28368 | 13921 ft | 368 kts | 349° |
| 2026-04-30 17:52 | 30.66512 | 31.27105 | 15974 ft | 378 kts | 348° |
| 2026-04-30 17:53 | 30.79870 | 31.24920 | 19025 ft | 397 kts | 348° |
| 2026-04-30 17:54 | 30.90949 | 31.23107 | 21371 ft | 409 kts | 347° |
| 2026-04-30 17:55 | 31.02336 | 31.21236 | 23524 ft | 419 kts | 347° |
| 2026-04-30 17:56 | 31.13957 | 31.19328 | 24025 ft | 421 kts | 347° |
| 2026-04-30 17:57 | 31.22762 | 31.18500 | 24024 ft | 431 kts | 359° |
| 2026-04-30 17:58 | 31.31493 | 31.21874 | 24021 ft | 448 kts | 19° |
| 2026-04-30 17:59 | 31.42590 | 31.28559 | 24020 ft | 447 kts | 21° |
| 2026-04-30 18:00 | 31.53753 | 31.35046 | 24020 ft | 444 kts | 13° |
| 2026-04-30 18:00 | 31.62656 | 31.35876 | 24029 ft | 425 kts | 351° |
| 2026-04-30 18:01 | 31.68541 | 31.35258 | 24028 ft | 423 kts | 349° |
| 2026-04-30 18:02 | 31.77372 | 31.34237 | 24030 ft | 423 kts | 349° |
| 2026-04-30 18:02 | 31.86279 | 31.33269 | 25139 ft | 428 kts | 349° |
| 2026-04-30 18:03 | 31.95260 | 31.32311 | 26514 ft | 437 kts | 349° |
| 2026-04-30 18:04 | 32.04400 | 31.31338 | 27923 ft | 444 kts | 349° |
| 2026-04-30 18:05 | 32.16725 | 31.33228 | 30277 ft | 464 kts | 17° |
| 2026-04-30 18:06 | 32.27227 | 31.42590 | 32057 ft | 489 kts | 41° |
| 2026-04-30 18:07 | 32.34485 | 31.56484 | 33022 ft | 503 kts | 56° |
| 2026-04-30 18:08 | 32.39598 | 31.67165 | 33011 ft | 496 kts | 52° |
| 2026-04-30 18:10 | 32.54970 | 31.93998 | 33010 ft | 490 kts | 49° |
| 2026-04-30 18:11 | 32.68563 | 32.17233 | 33013 ft | 489 kts | 50° |
| 2026-04-30 18:13 | 32.78237 | 32.33799 | 33009 ft | 489 kts | 50° |
| 2026-04-30 18:14 | 32.89257 | 32.48768 | 33012 ft | 479 kts | 38° |
| 2026-04-30 18:15 | 33.03711 | 32.65142 | 33006 ft | 480 kts | 39° |
| 2026-04-30 18:16 | 33.13280 | 32.76211 | 33010 ft | 480 kts | 39° |
| 2026-04-30 18:17 | 33.18030 | 32.81733 | 33009 ft | 477 kts | 39° |
| 2026-04-30 18:18 | 33.25137 | 32.90013 | 33009 ft | 478 kts | 39° |
| 2026-04-30 18:18 | 33.29908 | 32.95581 | 33009 ft | 477 kts | 40° |
| 2026-04-30 18:19 | 33.34643 | 33.01118 | 33008 ft | 477 kts | 40° |
| 2026-04-30 18:19 | 33.39385 | 33.06668 | 33008 ft | 476 kts | 40° |
| 2026-04-30 18:20 | 33.44122 | 33.12225 | 33008 ft | 477 kts | 40° |
| 2026-04-30 18:20 | 33.48843 | 33.17772 | 33008 ft | 475 kts | 40° |
| 2026-04-30 18:21 | 33.53531 | 33.23287 | 33008 ft | 475 kts | 40° |
| 2026-04-30 18:21 | 33.58239 | 33.28837 | 33008 ft | 476 kts | 40° |
| 2026-04-30 18:22 | 33.62961 | 33.34413 | 33008 ft | 476 kts | 40° |
| 2026-04-30 18:22 | 33.70031 | 33.42768 | 33008 ft | 475 kts | 40° |
| 2026-04-30 18:23 | 33.74735 | 33.48327 | 33008 ft | 475 kts | 40° |
| 2026-04-30 18:23 | 33.79443 | 33.53895 | 33008 ft | 476 kts | 40° |
| 2026-04-30 18:24 | 33.86455 | 33.62328 | 33008 ft | 476 kts | 42° |
| 2026-04-30 18:25 | 33.90987 | 33.68148 | 33008 ft | 477 kts | 43° |
| 2026-04-30 18:25 | 33.97749 | 33.76951 | 33008 ft | 477 kts | 43° |
| 2026-04-30 18:26 | 34.04485 | 33.85689 | 33009 ft | 475 kts | 43° |
| 2026-04-30 18:27 | 34.11227 | 33.94407 | 33011 ft | 476 kts | 43° |
| 2026-04-30 18:28 | 34.17988 | 34.03160 | 33009 ft | 474 kts | 44° |
| 2026-04-30 18:28 | 34.24641 | 34.11796 | 32098 ft | 466 kts | 44° |
| 2026-04-30 18:29 | 34.26846 | 34.14662 | 31379 ft | 467 kts | 44° |
| 2026-04-30 18:29 | 34.33017 | 34.23932 | 28763 ft | 481 kts | 58° |
| 2026-04-30 18:30 | 34.35610 | 34.31386 | 26819 ft | 491 kts | 71° |
| 2026-04-30 18:30 | 34.36852 | 34.39488 | 25152 ft | 489 kts | 86° |
| 2026-04-30 18:31 | 34.36801 | 34.43577 | 24504 ft | 483 kts | 93° |
| 2026-04-30 18:31 | 34.35751 | 34.51395 | 23135 ft | 461 kts | 106° |
| 2026-04-30 18:32 | 34.33334 | 34.58278 | 21802 ft | 438 kts | 119° |
| 2026-04-30 18:32 | 34.31802 | 34.61429 | 21143 ft | 428 kts | 122° |
| 2026-04-30 18:32 | 34.28601 | 34.67300 | 19868 ft | 409 kts | 125° |
| 2026-04-30 18:33 | 34.27016 | 34.70087 | 19239 ft | 401 kts | 126° |
| 2026-04-30 18:33 | 34.23320 | 34.75019 | 17986 ft | 406 kts | 140° |
| 2026-04-30 18:33 | 34.21111 | 34.77120 | 17332 ft | 407 kts | 145° |
| 2026-04-30 18:34 | 34.18769 | 34.79005 | 16672 ft | 404 kts | 148° |
| 2026-04-30 18:34 | 34.13977 | 34.82474 | 15374 ft | 396 kts | 150° |
| 2026-04-30 18:34 | 34.11646 | 34.84126 | 14751 ft | 392 kts | 150° |
| 2026-04-30 18:35 | 34.09303 | 34.85798 | 14115 ft | 388 kts | 150° |
| 2026-04-30 18:35 | 34.06984 | 34.87470 | 13481 ft | 385 kts | 149° |
| 2026-04-30 18:35 | 34.04736 | 34.89103 | 12867 ft | 381 kts | 149° |
| 2026-04-30 18:36 | 34.00222 | 34.92406 | 11598 ft | 374 kts | 149° |
| 2026-04-30 18:36 | 33.98018 | 34.94023 | 11076 ft | 367 kts | 149° |
| 2026-04-30 18:36 | 33.93804 | 34.97117 | 10668 ft | 338 kts | 149° |
| 2026-04-30 18:37 | 33.91833 | 34.98563 | 10525 ft | 323 kts | 149° |
| 2026-04-30 18:37 | 33.89969 | 34.99929 | 10393 ft | 310 kts | 149° |
| 2026-04-30 18:37 | 33.88161 | 35.01252 | 10249 ft | 298 kts | 149° |
| 2026-04-30 18:37 | 33.86414 | 35.02531 | 10094 ft | 287 kts | 149° |
| 2026-04-30 18:38 | 33.84714 | 35.03773 | 9789 ft | 283 kts | 149° |
| 2026-04-30 18:38 | 33.83050 | 35.04988 | 9415 ft | 279 kts | 149° |
| 2026-04-30 18:38 | 33.81414 | 35.06182 | 9090 ft | 271 kts | 149° |
| 2026-04-30 18:38 | 33.79840 | 35.07332 | 8763 ft | 263 kts | 149° |
| 2026-04-30 18:39 | 33.78294 | 35.08460 | 8436 ft | 256 kts | 150° |
| 2026-04-30 18:39 | 33.76787 | 35.09559 | 8142 ft | 248 kts | 149° |
| 2026-04-30 18:39 | 33.75324 | 35.10626 | 7881 ft | 245 kts | 149° |
| 2026-04-30 18:39 | 33.73883 | 35.11675 | 7549 ft | 244 kts | 150° |
| 2026-04-30 18:40 | 33.72422 | 35.12739 | 7262 ft | 243 kts | 150° |
| 2026-04-30 18:40 | 33.70985 | 35.13784 | 6957 ft | 241 kts | 149° |
| 2026-04-30 18:40 | 33.69560 | 35.14822 | 6664 ft | 240 kts | 149° |
| 2026-04-30 18:40 | 33.68149 | 35.15848 | 6372 ft | 238 kts | 149° |
| 2026-04-30 18:41 | 33.66732 | 35.16879 | 6084 ft | 236 kts | 149° |
| 2026-04-30 18:41 | 33.65275 | 35.17938 | 5789 ft | 251 kts | 149° |
| 2026-04-30 18:41 | 33.63776 | 35.19025 | 5470 ft | 256 kts | 149° |
| 2026-04-30 18:41 | 33.62246 | 35.20136 | 5147 ft | 254 kts | 149° |
| 2026-04-30 18:42 | 33.60812 | 35.21325 | 4838 ft | 252 kts | 138° |
| 2026-04-30 18:42 | 33.59345 | 35.24997 | 4298 ft | 245 kts | 101° |
| 2026-04-30 18:42 | 33.59022 | 35.26949 | 4219 ft | 234 kts | 101° |
| 2026-04-30 18:45 | 33.68332 | 35.39268 | 2785 ft | 203 kts | 32° |
| 2026-04-30 18:45 | 33.69546 | 35.40200 | 2444 ft | 207 kts | 32° |
| 2026-04-30 18:45 | 33.70749 | 35.41125 | 2176 ft | 205 kts | 32° |
| 2026-04-30 18:46 | 33.71931 | 35.42052 | 1992 ft | 195 kts | 33° |
| 2026-04-30 18:46 | 33.73009 | 35.42950 | 1715 ft | 184 kts | 35° |
| 2026-04-30 18:46 | 33.74060 | 35.43771 | 1421 ft | 174 kts | 30° |
| 2026-04-30 18:46 | 33.75057 | 35.44506 | 1192 ft | 164 kts | 31° |
| 2026-04-30 18:47 | 33.75996 | 35.45217 | 977 ft | 155 kts | 31° |
| 2026-04-30 18:47 | 33.76883 | 35.45887 | 760 ft | 149 kts | 31° |
| 2026-04-30 18:47 | 33.77768 | 35.46502 | 571 ft | 143 kts | 29° |
| 2026-04-30 18:47 | 33.78593 | 35.47140 | 417 ft | 139 kts | 33° |
| 2026-04-30 18:48 | 33.79396 | 35.47764 | 257 ft | 136 kts | 31° |
| 2026-04-30 18:48 | 33.80190 | 35.48375 | 121 ft | 134 kts | 31° |
| 2026-04-30 18:48 | 33.80947 | 35.48947 | 107 ft | 126 kts | 31° |
| 2026-04-30 18:48 | 33.81693 | 35.49514 | 604 ft | 130 kts | 30° |
| 2026-04-30 18:49 | 33.82597 | 35.49872 | 983 ft | 148 kts | 4° |
| 2026-04-30 18:49 | 33.83649 | 35.49504 | 1310 ft | 174 kts | 323° |
| 2026-04-30 18:49 | 33.84272 | 35.48181 | 1906 ft | 192 kts | 282° |
| 2026-04-30 18:49 | 33.84356 | 35.46629 | 2789 ft | 190 kts | 274° |
| 2026-04-30 18:50 | 33.84533 | 35.45000 | 3082 ft | 202 kts | 280° |
| 2026-04-30 18:50 | 33.84376 | 35.43372 | 2981 ft | 198 kts | 242° |
| 2026-04-30 18:50 | 33.83413 | 35.42215 | 2983 ft | 199 kts | 216° |
| 2026-04-30 18:50 | 33.82269 | 35.41239 | 2979 ft | 199 kts | 216° |
| 2026-04-30 18:51 | 33.81145 | 35.40261 | 2985 ft | 199 kts | 216° |
| 2026-04-30 18:51 | 33.80031 | 35.39286 | 2978 ft | 198 kts | 216° |
| 2026-04-30 18:51 | 33.78917 | 35.38307 | 2986 ft | 199 kts | 216° |
| 2026-04-30 18:51 | 33.77800 | 35.37324 | 2981 ft | 198 kts | 216° |
| 2026-04-30 18:52 | 33.76672 | 35.36331 | 2980 ft | 198 kts | 216° |
| 2026-04-30 18:52 | 33.75561 | 35.35351 | 2979 ft | 199 kts | 216° |
| 2026-04-30 18:52 | 33.74437 | 35.34366 | 2976 ft | 200 kts | 216° |
| 2026-04-30 18:52 | 33.73315 | 35.33388 | 2972 ft | 199 kts | 216° |
| 2026-04-30 18:53 | 33.72194 | 35.32407 | 2973 ft | 200 kts | 216° |
| 2026-04-30 18:53 | 33.71091 | 35.31440 | 2965 ft | 188 kts | 216° |
| 2026-04-30 18:53 | 33.70050 | 35.30530 | 2971 ft | 186 kts | 216° |
| 2026-04-30 18:53 | 33.68998 | 35.29621 | 2964 ft | 187 kts | 213° |
| 2026-04-30 18:54 | 33.67772 | 35.29210 | 2962 ft | 185 kts | 170° |
| 2026-04-30 18:54 | 33.66725 | 35.29994 | 2972 ft | 181 kts | 119° |
| 2026-04-30 18:54 | 33.66495 | 35.31427 | 2977 ft | 176 kts | 85° |
| 2026-04-30 18:54 | 33.66584 | 35.32892 | 2970 ft | 177 kts | 84° |
| 2026-04-30 18:55 | 33.66657 | 35.34378 | 2970 ft | 176 kts | 85° |
| 2026-04-30 18:55 | 33.66941 | 35.37281 | 2973 ft | 176 kts | 62° |
| 2026-04-30 18:55 | 33.67743 | 35.38372 | 2895 ft | 176 kts | 39° |
| 2026-04-30 18:56 | 33.69616 | 35.40117 | 2426 ft | 161 kts | 34° |
| 2026-04-30 18:56 | 33.70523 | 35.40866 | 2216 ft | 156 kts | 33° |
| 2026-04-30 18:56 | 33.71415 | 35.41581 | 2020 ft | 151 kts | 33° |
| 2026-04-30 18:57 | 33.73185 | 35.42971 | 1615 ft | 152 kts | 32° |
| 2026-04-30 18:57 | 33.74070 | 35.43658 | 1415 ft | 152 kts | 32° |
| 2026-04-30 18:57 | 33.74957 | 35.44345 | 1210 ft | 151 kts | 32° |
| 2026-04-30 18:58 | 33.76724 | 35.45716 | 795 ft | 151 kts | 32° |
| 2026-04-30 18:58 | 33.77597 | 35.46404 | 651 ft | 150 kts | 32° |
| 2026-04-30 18:58 | 33.78492 | 35.47071 | 489 ft | 151 kts | 30° |
| 2026-04-30 18:59 | 33.80268 | 35.48434 | 106 ft | 150 kts | 31° |
| 2026-04-30 19:00 | 33.82585 | 35.50272 | 709 ft | 127 kts | 35° |
| 2026-04-30 19:00 | 33.83452 | 35.50639 | 1017 ft | 148 kts | 352° |
| 2026-04-30 19:00 | 33.84495 | 35.48443 | 2104 ft | 182 kts | 275° |
| 2026-04-30 19:01 | 33.83464 | 35.45723 | 3003 ft | 191 kts | 225° |
| 2026-04-30 19:01 | 33.82536 | 35.44589 | 2983 ft | 191 kts | 226° |
| 2026-04-30 19:02 | 33.80713 | 35.42322 | 2835 ft | 188 kts | 226° |
| 2026-04-30 19:02 | 33.78633 | 35.40400 | 2699 ft | 188 kts | 214° |
| 2026-04-30 19:03 | 33.76471 | 35.38635 | 2529 ft | 188 kts | 214° |
| 2026-04-30 19:03 | 33.74303 | 35.36878 | 2339 ft | 188 kts | 214° |
| 2026-04-30 19:04 | 33.72126 | 35.35151 | 2164 ft | 186 kts | 208° |
| 2026-04-30 19:04 | 33.70083 | 35.35859 | 1996 ft | 164 kts | 105° |
| 2026-04-30 19:05 | 33.70141 | 35.38474 | 1974 ft | 152 kts | 84° |
| 2026-04-30 19:05 | 33.70405 | 35.40906 | 1947 ft | 139 kts | 53° |
| 2026-04-30 19:06 | 33.72060 | 35.42075 | 1890 ft | 141 kts | 32° |
| 2026-04-30 19:06 | 33.72859 | 35.42717 | 1690 ft | 136 kts | 32° |
| 2026-04-30 19:06 | 33.74461 | 35.43960 | 1329 ft | 135 kts | 32° |
| 2026-04-30 19:07 | 33.76054 | 35.45192 | 968 ft | 135 kts | 31° |
| 2026-04-30 19:07 | 33.76846 | 35.45803 | 788 ft | 135 kts | 31° |
| 2026-04-30 19:08 | 33.78416 | 35.47018 | 435 ft | 135 kts | 32° |
| 2026-04-30 19:08 | 33.79996 | 35.48223 | 111 ft | 135 kts | 31° |
| 2026-04-30 19:08 | 33.80753 | 35.48812 | 68 ft | 119 kts | 31° |
| 2026-04-30 19:09 | 33.81588 | 35.49453 | 56 ft | 48 kts | 32° |
| 2026-04-30 19:09 | 33.81833 | 35.49585 | 57 ft | 26 kts | 9° |
| 2026-04-30 19:09 | 33.81975 | 35.49598 | 58 ft | 9 kts | 2° |
| 2026-04-30 19:10 | 33.81984 | 35.49599 | 58 ft | 0 kts | 3° |
| 2026-04-30 19:11 | 33.82072 | 35.49604 | 60 ft | 9 kts | 2° |
| 2026-04-30 19:11 | 33.82142 | 35.49608 | 60 ft | 10 kts | 1° |
| 2026-04-30 19:12 | 33.82206 | 35.49578 | 60 ft | 9 kts | 313° |
| 2026-04-30 19:12 | 33.82242 | 35.49522 | 61 ft | 7 kts | 307° |
| 2026-04-30 19:12 | 33.82265 | 35.49492 | 61 ft | 3 kts | 345° |
| 2026-04-30 19:13 | 33.82298 | 35.49503 | 62 ft | 2 kts | 30° |
| 2026-04-30 19:13 | 33.82338 | 35.49533 | 63 ft | 2 kts | 17° |
| 2026-04-30 19:13 | 33.82351 | 35.49530 | 63 ft | 2 kts | 327° |
| 2026-04-30 19:14 | 33.82361 | 35.49514 | 63 ft | 2 kts | 284° |
| 2026-04-30 19:14 | 33.82355 | 35.49484 | 63 ft | 5 kts | 259° |
| 2026-04-30 19:14 | 33.82359 | 35.49455 | 63 ft | 2 kts | 303° |
| 2026-04-30 19:14 | 33.82367 | 35.49441 | 62 ft | 0 kts | 308° |